createdAt,value
2018-07-12T00:04:49.435Z,14.90
2018-07-12T00:09:42.958Z,14.90
2018-07-12T00:19:32.175Z,14.80
2018-07-12T00:29:19.457Z,14.90
2018-07-12T00:34:13.250Z,14.80
2018-07-12T00:39:06.881Z,14.70
2018-07-12T00:44:01.176Z,14.60
2018-07-12T00:48:54.865Z,14.60
2018-07-12T00:53:48.575Z,14.50
2018-07-12T00:58:42.007Z,14.50
2018-07-12T01:03:36.179Z,14.50
2018-07-12T01:08:29.632Z,14.40
2018-07-12T01:13:24.458Z,14.40
2018-07-12T01:18:18.041Z,14.30
2018-07-12T01:23:11.971Z,14.30
2018-07-12T01:28:05.514Z,14.40
2018-07-12T01:32:59.594Z,14.40
2018-07-12T01:37:53.817Z,14.40
2018-07-12T01:42:47.388Z,14.30
2018-07-12T01:47:41.761Z,14.20
2018-07-12T01:52:35.376Z,14.10
2018-07-12T01:57:29.190Z,14.10
2018-07-12T02:02:22.633Z,14.10
2018-07-12T02:07:16.441Z,14.10
2018-07-12T02:12:10.428Z,14.10
2018-07-12T02:17:06.814Z,14.00
2018-07-12T02:22:00.243Z,14.00
2018-07-12T02:26:53.710Z,14.00
2018-07-12T02:31:47.326Z,13.90
2018-07-12T02:36:41.508Z,13.80
2018-07-12T02:41:34.937Z,13.80
2018-07-12T02:46:28.416Z,13.90
2018-07-12T02:51:22.219Z,14.00
2018-07-12T02:56:16.263Z,14.10
2018-07-12T03:01:09.738Z,14.20
2018-07-12T03:06:04.467Z,14.30
2018-07-12T03:10:58.363Z,14.30
2018-07-12T03:15:51.845Z,14.30
2018-07-12T03:20:45.972Z,14.40
2018-07-12T03:25:39.535Z,14.40
2018-07-12T03:30:35.670Z,14.50
2018-07-12T03:35:29.857Z,14.60
2018-07-12T03:40:23.478Z,14.70
2018-07-12T03:45:17.200Z,14.80
2018-07-12T03:50:11.794Z,14.90
2018-07-12T03:55:05.943Z,15.00
2018-07-12T04:00:00.619Z,15.10
2018-07-12T04:04:55.610Z,15.00
2018-07-12T04:09:56.648Z,15.10
2018-07-12T04:14:50.587Z,15.10
2018-07-12T04:19:44.201Z,15.20
2018-07-12T04:29:32.034Z,15.40
2018-07-12T04:34:25.893Z,15.50
2018-07-12T04:44:13.683Z,15.70
2018-07-12T04:49:09.575Z,15.80
2018-07-12T04:54:04.317Z,16.00
2018-07-12T04:58:57.993Z,16.10
2018-07-12T05:03:52.595Z,16.10
2018-07-12T05:08:46.085Z,16.20
2018-07-12T05:13:40.233Z,16.40
2018-07-12T05:18:34.401Z,16.70
2018-07-12T05:23:27.955Z,16.90
2018-07-12T05:28:21.684Z,17.10
2018-07-12T05:33:15.561Z,17.00
2018-07-12T05:43:06.201Z,16.80
2018-07-12T05:48:02.002Z,16.70
2018-07-12T05:52:57.939Z,16.90
2018-07-12T05:57:53.400Z,17.00
2018-07-12T06:02:48.979Z,16.90
2018-07-12T06:07:45.608Z,16.90
2018-07-12T06:12:41.879Z,16.70
2018-07-12T06:17:37.443Z,16.80
2018-07-12T06:22:33.185Z,16.80
2018-07-12T06:27:28.612Z,16.80
2018-07-12T06:32:24.583Z,16.90
2018-07-12T06:37:20.198Z,16.80
2018-07-12T06:42:15.915Z,16.70
2018-07-12T06:47:13.580Z,16.60
2018-07-12T06:52:09.375Z,16.60
2018-07-12T06:57:06.345Z,16.60
2018-07-12T07:02:04.640Z,16.60
2018-07-12T07:07:01.380Z,16.70
2018-07-12T07:12:06.554Z,16.60
2018-07-12T07:17:04.461Z,16.60
2018-07-12T07:22:00.230Z,16.60
2018-07-12T07:26:56.423Z,16.60
2018-07-12T07:31:52.628Z,16.50
2018-07-12T07:36:48.160Z,16.40
2018-07-12T07:41:44.818Z,16.40
2018-07-12T07:46:40.607Z,16.40
2018-07-12T07:51:37.606Z,16.50
2018-07-12T08:01:28.303Z,16.60
2018-07-12T08:06:24.019Z,16.50
2018-07-12T08:11:19.921Z,16.40
2018-07-12T08:16:16.005Z,16.30
2018-07-12T08:21:16.227Z,16.30
2018-07-12T08:26:11.802Z,16.30
2018-07-12T08:31:08.074Z,16.20
2018-07-12T08:36:04.580Z,16.30
2018-07-12T08:41:00.545Z,16.40
2018-07-12T08:45:56.697Z,16.40
2018-07-12T08:50:53.593Z,16.40
2018-07-12T08:55:49.182Z,16.60
2018-07-12T09:00:44.769Z,16.70
2018-07-12T09:05:40.310Z,16.90
2018-07-12T09:10:36.116Z,17.00
2018-07-12T09:15:32.235Z,16.90
2018-07-12T09:20:27.996Z,16.90
2018-07-12T09:25:25.417Z,16.80
2018-07-12T09:30:20.705Z,16.80
2018-07-12T09:35:16.462Z,16.70
2018-07-12T09:40:12.134Z,16.80
2018-07-12T09:45:11.133Z,16.80
2018-07-12T09:50:07.188Z,16.70
2018-07-12T09:55:03.476Z,16.80
2018-07-12T09:59:59.782Z,16.60
2018-07-12T10:09:56.243Z,16.40
2018-07-12T10:14:52.432Z,16.40
2018-07-12T10:19:48.735Z,16.20
2018-07-12T10:29:40.522Z,16.50
2018-07-12T10:34:39.071Z,16.50
2018-07-12T10:39:35.503Z,16.60
2018-07-12T10:44:31.787Z,16.50
2018-07-12T10:49:27.551Z,16.60
2018-07-12T10:54:24.897Z,16.60
2018-07-12T10:59:21.788Z,16.70
2018-07-12T11:04:17.659Z,16.70
2018-07-12T11:14:11.218Z,16.70
2018-07-12T11:19:06.979Z,16.70
2018-07-12T11:24:03.448Z,16.70
2018-07-12T11:28:59.338Z,16.70
2018-07-12T11:33:54.970Z,16.70
2018-07-12T11:38:50.545Z,16.80
2018-07-12T11:43:49.534Z,16.90
2018-07-12T11:48:45.918Z,16.80
2018-07-12T11:53:41.539Z,16.90
2018-07-12T12:03:32.228Z,16.90
2018-07-12T12:08:28.240Z,17.00
2018-07-12T12:13:25.390Z,17.00
2018-07-12T12:18:21.024Z,17.10
2018-07-12T12:23:16.605Z,17.20
2018-07-12T12:28:12.037Z,17.40
2018-07-12T12:33:09.162Z,17.50
2018-07-12T12:38:13.740Z,17.50
2018-07-12T12:43:09.969Z,17.50
2018-07-12T12:48:06.633Z,17.60
2018-07-12T12:53:03.256Z,17.70
2018-07-12T12:58:01.687Z,17.90
2018-07-12T13:03:00.074Z,18.40
2018-07-12T13:07:57.307Z,18.70
2018-07-12T13:12:54.280Z,18.80
2018-07-12T13:17:51.221Z,18.80
2018-07-12T13:22:47.303Z,18.90
2018-07-12T13:27:43.158Z,19.10
2018-07-12T13:32:39.982Z,19.30
2018-07-12T13:37:35.690Z,19.50
2018-07-12T13:42:32.493Z,19.70
2018-07-12T13:47:28.275Z,20.10
2018-07-12T13:52:24.577Z,20.40
2018-07-12T13:57:20.081Z,21.00
2018-07-12T14:02:15.558Z,21.10
2018-07-12T14:07:11.342Z,21.20
2018-07-12T14:12:09.135Z,21.10
2018-07-12T14:17:05.592Z,21.10
2018-07-12T14:26:56.344Z,21.30
2018-07-12T14:31:52.234Z,21.40
2018-07-12T14:36:47.699Z,21.20
2018-07-12T14:41:43.986Z,21.10
2018-07-12T14:46:39.742Z,21.10
2018-07-12T14:51:36.325Z,21.40
2018-07-12T14:56:33.514Z,21.80
2018-07-12T15:01:29.015Z,22.20
2018-07-12T15:06:24.511Z,22.20
2018-07-12T15:11:20.216Z,22.10
2018-07-12T15:16:15.738Z,21.70
2018-07-12T15:26:07.533Z,21.30
2018-07-12T15:31:05.634Z,21.00
2018-07-12T15:36:01.847Z,21.10
2018-07-12T15:40:58.736Z,21.20
2018-07-12T15:45:57.036Z,21.20
2018-07-12T15:50:52.938Z,21.30
2018-07-12T15:55:49.764Z,21.30
2018-07-12T16:00:46.973Z,21.00
2018-07-12T16:05:44.476Z,20.60
2018-07-12T16:10:40.506Z,20.50
2018-07-12T16:15:36.080Z,20.40
2018-07-12T16:20:32.039Z,20.60
2018-07-12T16:25:27.726Z,20.50
2018-07-12T16:30:23.246Z,20.70
2018-07-12T16:35:19.586Z,20.80
2018-07-12T16:40:17.259Z,20.90
2018-07-12T16:45:12.905Z,21.00
2018-07-12T16:50:09.173Z,20.90
2018-07-12T16:55:05.429Z,20.90
2018-07-12T17:00:03.125Z,20.80
2018-07-12T17:04:59.305Z,20.80
2018-07-12T17:09:55.305Z,20.90
2018-07-12T17:14:52.870Z,20.80
2018-07-12T17:19:49.501Z,20.80
2018-07-12T17:24:44.906Z,20.60
2018-07-12T17:29:41.115Z,20.50
2018-07-12T17:34:36.653Z,20.40
2018-07-12T17:39:32.417Z,20.30
2018-07-12T17:44:28.426Z,20.20
2018-07-12T17:49:24.493Z,20.40
2018-07-12T17:54:22.421Z,20.40
2018-07-12T17:59:19.252Z,20.50
2018-07-12T18:04:15.171Z,20.40
2018-07-12T18:09:11.510Z,20.30
2018-07-12T18:14:07.440Z,20.20
2018-07-12T18:19:04.219Z,20.00
2018-07-12T18:23:59.689Z,19.90
2018-07-12T18:33:51.197Z,19.80
2018-07-12T18:38:46.901Z,19.70
2018-07-12T18:43:43.547Z,19.60
2018-07-12T18:48:39.633Z,19.60
2018-07-12T18:53:36.861Z,19.50
2018-07-12T19:03:27.955Z,19.40
2018-07-12T19:08:23.370Z,19.30
2018-07-12T19:13:20.334Z,19.30
2018-07-12T19:18:16.070Z,19.30
2018-07-12T19:23:11.626Z,19.20
2018-07-12T19:28:07.784Z,19.20
2018-07-12T19:33:04.124Z,19.20
2018-07-12T19:37:59.821Z,19.20
2018-07-12T19:42:55.369Z,19.20
2018-07-12T19:47:50.906Z,19.10
2018-07-12T19:52:46.576Z,19.10
2018-07-12T19:57:42.261Z,19.10
2018-07-12T20:02:37.907Z,19.10
2018-07-12T20:07:33.394Z,19.10
2018-07-12T20:12:28.857Z,19.00
2018-07-12T20:22:21.031Z,19.00
2018-07-12T20:27:16.405Z,18.90
2018-07-12T20:32:11.893Z,18.90
2018-07-12T20:37:08.106Z,18.90
2018-07-12T20:42:06.700Z,18.90
2018-07-12T20:47:05.585Z,18.80
2018-07-12T20:52:00.995Z,18.80
2018-07-12T20:57:00.362Z,18.80
2018-07-12T21:06:54.071Z,18.70
2018-07-12T21:11:50.021Z,18.60
2018-07-12T21:16:45.962Z,18.70
2018-07-12T21:21:42.412Z,18.70
2018-07-12T21:26:38.298Z,18.70
2018-07-12T21:31:34.104Z,18.60
2018-07-12T21:36:31.381Z,18.60
2018-07-12T21:41:27.064Z,18.50
2018-07-12T21:46:22.926Z,18.60
2018-07-12T21:51:19.017Z,18.60
2018-07-12T21:56:14.699Z,18.50
2018-07-12T22:01:10.913Z,18.50
2018-07-12T22:06:07.251Z,18.40
2018-07-12T22:11:05.849Z,18.40
2018-07-12T22:16:02.861Z,18.40
2018-07-12T22:20:58.722Z,18.40
2018-07-12T22:30:52.530Z,18.40
2018-07-12T22:35:49.646Z,18.40
2018-07-12T22:40:47.676Z,18.30
2018-07-12T22:45:47.378Z,18.20
2018-07-12T22:50:43.132Z,18.00
2018-07-12T22:55:39.266Z,18.00
2018-07-12T23:00:34.608Z,17.80
2018-07-12T23:05:29.975Z,17.70
2018-07-12T23:10:25.505Z,17.70
2018-07-12T23:15:21.050Z,17.70
2018-07-12T23:20:17.882Z,17.70
2018-07-12T23:25:13.438Z,17.70
2018-07-12T23:30:13.198Z,17.70
2018-07-12T23:35:09.074Z,17.80
2018-07-12T23:40:06.903Z,17.70
2018-07-12T23:45:03.714Z,17.60
2018-07-12T23:50:00.019Z,17.60
2018-07-12T23:54:55.766Z,17.60
2018-07-12T23:59:51.280Z,17.60
